sensor_id;sensor_type;location;lat;lon;timestamp;temperature;humidity
7894;DHT22;51343;51.396;6.656;2023-04-30T00:00:49;8.60;99.90
7894;DHT22;51343;51.396;6.656;2023-04-30T00:03:29;8.60;1.00
7894;DHT22;51343;51.396;6.656;2023-04-30T00:06:07;8.60;99.90
7894;DHT22;51343;51.396;6.656;2023-04-30T00:08:35;8.50;99.90
7894;DHT22;51343;51.396;6.656;2023-04-30T00:11:10;8.40;1.00
7894;DHT22;51343;51.396;6.656;2023-04-30T00:13:46;8.30;1.00
7894;DHT22;51343;51.396;6.656;2023-04-30T00:19:08;8.30;8.30
7894;DHT22;51343;51.396;6.656;2023-04-30T00:24:30;8.30;99.90
7894;DHT22;51343;51.396;6.656;2023-04-30T00:26:59;8.20;99.90
7894;DHT22;51343;51.396;6.656;2023-04-30T00:32:19;8.20;1.00
7894;DHT22;51343;51.396;6.656;2023-04-30T00:37:40;8.10;1.00
7894;DHT22;51343;51.396;6.656;2023-04-30T00:40:21;8.10;1.00
7894;DHT22;51343;51.396;6.656;2023-04-30T00:42:48;8.10;99.90
7894;DHT22;51343;51.396;6.656;2023-04-30T00:45:16;8.00;1.00
7894;DHT22;51343;51.396;6.656;2023-04-30T00:47:52;8.10;1.00
7894;DHT22;51343;51.396;6.656;2023-04-30T00:50:25;8.10;97.60
7894;DHT22;51343;51.396;6.656;2023-04-30T00:52:53;8.10;3.60
7894;DHT22;51343;51.396;6.656;2023-04-30T00:55:35;8.10;1.00
7894;DHT22;51343;51.396;6.656;2023-04-30T00:58:11;8.10;99.90
7894;DHT22;51343;51.396;6.656;2023-04-30T01:00:50;8.10;1.00
7894;DHT22;51343;51.396;6.656;2023-04-30T01:03:17;8.00;99.90
7894;DHT22;51343;51.396;6.656;2023-04-30T01:08:45;8.00;1.00
7894;DHT22;51343;51.396;6.656;2023-04-30T01:11:19;7.90;1.00
7894;DHT22;51343;51.396;6.656;2023-04-30T01:13:52;7.80;1.00
7894;DHT22;51343;51.396;6.656;2023-04-30T01:16:21;7.80;1.00
7894;DHT22;51343;51.396;6.656;2023-04-30T01:21:23;7.60;1.00
7894;DHT22;51343;51.396;6.656;2023-04-30T01:24:02;7.60;1.00
7894;DHT22;51343;51.396;6.656;2023-04-30T01:26:39;7.60;99.90
7894;DHT22;51343;51.396;6.656;2023-04-30T01:29:18;7.50;99.90
7894;DHT22;51343;51.396;6.656;2023-04-30T01:31:52;7.50;1.00
7894;DHT22;51343;51.396;6.656;2023-04-30T01:34:24;7.50;1.00
7894;DHT22;51343;51.396;6.656;2023-04-30T01:36:53;7.50;99.90
7894;DHT22;51343;51.396;6.656;2023-04-30T01:42:12;7.40;1.00
7894;DHT22;51343;51.396;6.656;2023-04-30T01:44:57;7.40;99.90
7894;DHT22;51343;51.396;6.656;2023-04-30T01:47:28;7.30;99.90
7894;DHT22;51343;51.396;6.656;2023-04-30T01:49:59;7.20;1.00
7894;DHT22;51343;51.396;6.656;2023-04-30T01:52:31;7.10;1.00
7894;DHT22;51343;51.396;6.656;2023-04-30T01:55:03;7.00;1.00
7894;DHT22;51343;51.396;6.656;2023-04-30T01:57:34;7.00;1.00
7894;DHT22;51343;51.396;6.656;2023-04-30T02:00:06;7.00;99.90
7894;DHT22;51343;51.396;6.656;2023-04-30T02:02:42;6.90;1.00
7894;DHT22;51343;51.396;6.656;2023-04-30T02:05:18;6.90;99.90
7894;DHT22;51343;51.396;6.656;2023-04-30T02:10:25;6.80;1.00
7894;DHT22;51343;51.396;6.656;2023-04-30T02:12:53;6.90;99.90
7894;DHT22;51343;51.396;6.656;2023-04-30T02:15:22;6.90;99.90
7894;DHT22;51343;51.396;6.656;2023-04-30T02:17:52;6.80;68.90
7894;DHT22;51343;51.396;6.656;2023-04-30T02:20:19;6.80;99.90
7894;DHT22;51343;51.396;6.656;2023-04-30T02:22:46;6.80;99.90
7894;DHT22;51343;51.396;6.656;2023-04-30T02:25:13;6.70;99.90
7894;DHT22;51343;51.396;6.656;2023-04-30T02:27:42;6.70;99.90
7894;DHT22;51343;51.396;6.656;2023-04-30T02:30:12;6.70;99.90
7894;DHT22;51343;51.396;6.656;2023-04-30T02:32:40;6.60;1.00
7894;DHT22;51343;51.396;6.656;2023-04-30T02:35:07;6.60;99.90
7894;DHT22;51343;51.396;6.656;2023-04-30T02:37:40;6.60;1.00
7894;DHT22;51343;51.396;6.656;2023-04-30T02:40:08;6.50;99.90
7894;DHT22;51343;51.396;6.656;2023-04-30T02:42:41;6.50;99.90
7894;DHT22;51343;51.396;6.656;2023-04-30T02:45:08;6.50;1.00
7894;DHT22;51343;51.396;6.656;2023-04-30T02:47:35;6.40;1.00
7894;DHT22;51343;51.396;6.656;2023-04-30T02:50:04;6.40;1.00
7894;DHT22;51343;51.396;6.656;2023-04-30T02:52:31;6.40;1.00
7894;DHT22;51343;51.396;6.656;2023-04-30T02:55:00;6.40;1.00
7894;DHT22;51343;51.396;6.656;2023-04-30T02:57:27;6.30;1.00
7894;DHT22;51343;51.396;6.656;2023-04-30T02:59:54;6.30;1.00
7894;DHT22;51343;51.396;6.656;2023-04-30T03:02:21;6.30;1.00
7894;DHT22;51343;51.396;6.656;2023-04-30T03:04:49;6.30;1.00
7894;DHT22;51343;51.396;6.656;2023-04-30T03:07:17;6.20;1.00
7894;DHT22;51343;51.396;6.656;2023-04-30T03:09:45;6.30;1.00
7894;DHT22;51343;51.396;6.656;2023-04-30T03:12:12;6.20;1.00
7894;DHT22;51343;51.396;6.656;2023-04-30T03:14:39;6.20;1.00
7894;DHT22;51343;51.396;6.656;2023-04-30T03:17:07;6.20;1.00
7894;DHT22;51343;51.396;6.656;2023-04-30T03:19:47;6.30;1.00
7894;DHT22;51343;51.396;6.656;2023-04-30T03:22:14;6.30;1.00
7894;DHT22;51343;51.396;6.656;2023-04-30T03:24:52;6.30;10.90
7894;DHT22;51343;51.396;6.656;2023-04-30T03:27:19;6.40;90.10
7894;DHT22;51343;51.396;6.656;2023-04-30T03:29:48;6.40;99.90
7894;DHT22;51343;51.396;6.656;2023-04-30T03:32:16;6.40;99.90
7894;DHT22;51343;51.396;6.656;2023-04-30T03:34:43;6.40;99.90
7894;DHT22;51343;51.396;6.656;2023-04-30T03:37:14;6.40;99.90
7894;DHT22;51343;51.396;6.656;2023-04-30T03:39:43;6.40;99.90
7894;DHT22;51343;51.396;6.656;2023-04-30T03:44:54;6.30;99.90
7894;DHT22;51343;51.396;6.656;2023-04-30T03:47:29;6.20;99.90
7894;DHT22;51343;51.396;6.656;2023-04-30T03:52:34;6.20;99.90
7894;DHT22;51343;51.396;6.656;2023-04-30T03:55:04;6.10;99.90
7894;DHT22;51343;51.396;6.656;2023-04-30T03:57:39;6.10;93.40
7894;DHT22;51343;51.396;6.656;2023-04-30T04:00:09;6.00;58.10
7894;DHT22;51343;51.396;6.656;2023-04-30T04:02:38;6.00;97.90
7894;DHT22;51343;51.396;6.656;2023-04-30T04:05:05;5.90;99.90
7894;DHT22;51343;51.396;6.656;2023-04-30T04:07:32;5.90;99.90
7894;DHT22;51343;51.396;6.656;2023-04-30T04:09:59;5.90;99.90
7894;DHT22;51343;51.396;6.656;2023-04-30T04:12:28;5.90;99.90
7894;DHT22;51343;51.396;6.656;2023-04-30T04:14:56;5.90;99.90
7894;DHT22;51343;51.396;6.656;2023-04-30T04:17:25;6.00;99.90
7894;DHT22;51343;51.396;6.656;2023-04-30T04:19:52;6.10;99.90
7894;DHT22;51343;51.396;6.656;2023-04-30T04:22:20;6.30;99.90
7894;DHT22;51343;51.396;6.656;2023-04-30T04:24:47;6.40;99.90
7894;DHT22;51343;51.396;6.656;2023-04-30T04:27:15;6.40;99.90
7894;DHT22;51343;51.396;6.656;2023-04-30T04:29:42;6.50;99.90
7894;DHT22;51343;51.396;6.656;2023-04-30T04:32:10;6.40;99.90
7894;DHT22;51343;51.396;6.656;2023-04-30T04:34:38;6.50;99.90
7894;DHT22;51343;51.396;6.656;2023-04-30T04:37:06;6.40;99.90
7894;DHT22;51343;51.396;6.656;2023-04-30T04:39:33;6.40;99.90
7894;DHT22;51343;51.396;6.656;2023-04-30T04:42:01;6.50;99.90
7894;DHT22;51343;51.396;6.656;2023-04-30T04:44:36;6.50;99.90
7894;DHT22;51343;51.396;6.656;2023-04-30T04:47:03;6.50;99.90
7894;DHT22;51343;51.396;6.656;2023-04-30T04:49:32;6.60;99.90
7894;DHT22;51343;51.396;6.656;2023-04-30T04:52:00;6.60;99.90
7894;DHT22;51343;51.396;6.656;2023-04-30T04:54:28;6.70;99.90
7894;DHT22;51343;51.396;6.656;2023-04-30T04:56:55;6.70;99.90
7894;DHT22;51343;51.396;6.656;2023-04-30T04:59:24;6.70;99.90
7894;DHT22;51343;51.396;6.656;2023-04-30T05:01:52;6.80;99.90
7894;DHT22;51343;51.396;6.656;2023-04-30T05:04:19;6.80;99.90
7894;DHT22;51343;51.396;6.656;2023-04-30T05:06:53;6.90;99.90
7894;DHT22;51343;51.396;6.656;2023-04-30T05:09:21;6.90;99.90
7894;DHT22;51343;51.396;6.656;2023-04-30T05:11:48;7.00;99.90
7894;DHT22;51343;51.396;6.656;2023-04-30T05:14:22;7.10;99.90
7894;DHT22;51343;51.396;6.656;2023-04-30T05:17:05;7.10;99.90
7894;DHT22;51343;51.396;6.656;2023-04-30T05:19:33;7.20;99.90
7894;DHT22;51343;51.396;6.656;2023-04-30T05:22:00;7.30;99.90
7894;DHT22;51343;51.396;6.656;2023-04-30T05:24:35;7.30;99.90
7894;DHT22;51343;51.396;6.656;2023-04-30T05:27:02;7.40;99.90
7894;DHT22;51343;51.396;6.656;2023-04-30T05:29:30;7.40;99.90
7894;DHT22;51343;51.396;6.656;2023-04-30T05:31:59;7.40;99.90
7894;DHT22;51343;51.396;6.656;2023-04-30T05:34:26;7.50;99.90
7894;DHT22;51343;51.396;6.656;2023-04-30T05:36:54;7.50;99.90
7894;DHT22;51343;51.396;6.656;2023-04-30T05:39:27;7.70;99.90
7894;DHT22;51343;51.396;6.656;2023-04-30T05:41:55;7.70;99.90
7894;DHT22;51343;51.396;6.656;2023-04-30T05:44:30;7.80;96.40
7894;DHT22;51343;51.396;6.656;2023-04-30T05:46:57;7.90;63.50
7894;DHT22;51343;51.396;6.656;2023-04-30T05:49:29;7.90;39.20
7894;DHT22;51343;51.396;6.656;2023-04-30T05:51:56;8.00;3.70
7894;DHT22;51343;51.396;6.656;2023-04-30T05:54:23;8.00;1.00
7894;DHT22;51343;51.396;6.656;2023-04-30T05:56:50;8.20;1.00
7894;DHT22;51343;51.396;6.656;2023-04-30T05:59:19;8.30;1.00
7894;DHT22;51343;51.396;6.656;2023-04-30T06:01:48;8.30;1.00
7894;DHT22;51343;51.396;6.656;2023-04-30T06:04:15;8.30;99.90
7894;DHT22;51343;51.396;6.656;2023-04-30T06:06:43;8.40;1.00
7894;DHT22;51343;51.396;6.656;2023-04-30T06:09:10;8.60;99.90
7894;DHT22;51343;51.396;6.656;2023-04-30T06:11:38;8.60;1.00
7894;DHT22;51343;51.396;6.656;2023-04-30T06:16:55;8.70;1.00
7894;DHT22;51343;51.396;6.656;2023-04-30T06:19:29;8.80;1.00
7894;DHT22;51343;51.396;6.656;2023-04-30T06:21:58;8.90;99.90
7894;DHT22;51343;51.396;6.656;2023-04-30T06:24:25;8.90;99.90
7894;DHT22;51343;51.396;6.656;2023-04-30T06:26:54;9.00;1.00
7894;DHT22;51343;51.396;6.656;2023-04-30T06:29:21;9.10;1.00
7894;DHT22;51343;51.396;6.656;2023-04-30T06:31:57;9.10;99.90
7894;DHT22;51343;51.396;6.656;2023-04-30T06:34:25;9.20;99.90
7894;DHT22;51343;51.396;6.656;2023-04-30T06:40:02;9.40;1.00
7894;DHT22;51343;51.396;6.656;2023-04-30T06:42:32;9.50;1.00
7894;DHT22;51343;51.396;6.656;2023-04-30T06:44:59;9.70;99.90
7894;DHT22;51343;51.396;6.656;2023-04-30T06:47:29;9.70;99.90
7894;DHT22;51343;51.396;6.656;2023-04-30T06:53:12;9.90;99.90
7894;DHT22;51343;51.396;6.656;2023-04-30T06:55:39;10.00;1.00
7894;DHT22;51343;51.396;6.656;2023-04-30T06:58:08;10.00;15.80
7894;DHT22;51343;51.396;6.656;2023-04-30T07:00:34;10.10;1.00
7894;DHT22;51343;51.396;6.656;2023-04-30T07:03:10;10.10;1.00
7894;DHT22;51343;51.396;6.656;2023-04-30T07:05:37;10.20;1.00
7894;DHT22;51343;51.396;6.656;2023-04-30T07:08:14;10.20;1.00
7894;DHT22;51343;51.396;6.656;2023-04-30T07:10:42;10.30;1.00
7894;DHT22;51343;51.396;6.656;2023-04-30T07:13:14;10.40;1.00
7894;DHT22;51343;51.396;6.656;2023-04-30T07:15:44;10.40;1.00
7894;DHT22;51343;51.396;6.656;2023-04-30T07:18:13;10.50;99.90
7894;DHT22;51343;51.396;6.656;2023-04-30T07:20:46;10.50;99.90
7894;DHT22;51343;51.396;6.656;2023-04-30T07:23:13;10.60;1.00
7894;DHT22;51343;51.396;6.656;2023-04-30T07:25:40;10.60;1.00
7894;DHT22;51343;51.396;6.656;2023-04-30T07:28:09;10.70;1.00
7894;DHT22;51343;51.396;6.656;2023-04-30T07:30:36;10.70;1.00
7894;DHT22;51343;51.396;6.656;2023-04-30T07:33:19;10.80;1.00
7894;DHT22;51343;51.396;6.656;2023-04-30T07:35:52;10.80;1.00
7894;DHT22;51343;51.396;6.656;2023-04-30T07:38:22;10.90;1.00
7894;DHT22;51343;51.396;6.656;2023-04-30T07:41:01;11.00;1.00
7894;DHT22;51343;51.396;6.656;2023-04-30T07:43:28;11.00;99.90
7894;DHT22;51343;51.396;6.656;2023-04-30T07:45:57;11.00;99.90
7894;DHT22;51343;51.396;6.656;2023-04-30T07:48:27;11.00;99.90
7894;DHT22;51343;51.396;6.656;2023-04-30T07:50:54;11.10;99.90
7894;DHT22;51343;51.396;6.656;2023-04-30T07:53:22;11.10;99.90
7894;DHT22;51343;51.396;6.656;2023-04-30T07:55:48;11.20;99.90
7894;DHT22;51343;51.396;6.656;2023-04-30T07:58:15;11.30;99.90
7894;DHT22;51343;51.396;6.656;2023-04-30T08:00:42;11.30;99.90
7894;DHT22;51343;51.396;6.656;2023-04-30T08:03:08;11.40;99.90
7894;DHT22;51343;51.396;6.656;2023-04-30T08:05:37;11.40;99.90
7894;DHT22;51343;51.396;6.656;2023-04-30T08:08:04;11.50;99.90
7894;DHT22;51343;51.396;6.656;2023-04-30T08:10:30;11.70;99.90
7894;DHT22;51343;51.396;6.656;2023-04-30T08:12:57;11.70;12.60
7894;DHT22;51343;51.396;6.656;2023-04-30T08:15:24;11.70;43.00
7894;DHT22;51343;51.396;6.656;2023-04-30T08:17:51;11.90;6.90
7894;DHT22;51343;51.396;6.656;2023-04-30T08:20:18;12.00;1.00
7894;DHT22;51343;51.396;6.656;2023-04-30T08:22:46;11.90;1.00
7894;DHT22;51343;51.396;6.656;2023-04-30T08:25:12;12.00;1.00
7894;DHT22;51343;51.396;6.656;2023-04-30T08:27:39;12.00;1.00
7894;DHT22;51343;51.396;6.656;2023-04-30T08:30:06;12.10;1.00
7894;DHT22;51343;51.396;6.656;2023-04-30T08:32:34;12.10;1.00
7894;DHT22;51343;51.396;6.656;2023-04-30T08:35:01;12.20;1.00
7894;DHT22;51343;51.396;6.656;2023-04-30T08:37:28;12.20;1.00
7894;DHT22;51343;51.396;6.656;2023-04-30T08:39:58;12.30;1.00
7894;DHT22;51343;51.396;6.656;2023-04-30T08:42:28;12.40;1.00
7894;DHT22;51343;51.396;6.656;2023-04-30T08:44:55;12.40;1.00
7894;DHT22;51343;51.396;6.656;2023-04-30T08:47:21;12.50;1.00
7894;DHT22;51343;51.396;6.656;2023-04-30T08:49:49;12.60;1.00
7894;DHT22;51343;51.396;6.656;2023-04-30T08:52:16;12.60;1.00
7894;DHT22;51343;51.396;6.656;2023-04-30T08:54:44;12.60;1.00
7894;DHT22;51343;51.396;6.656;2023-04-30T08:57:14;12.70;1.00
7894;DHT22;51343;51.396;6.656;2023-04-30T08:59:43;12.90;1.00
7894;DHT22;51343;51.396;6.656;2023-04-30T09:02:11;12.90;1.00
7894;DHT22;51343;51.396;6.656;2023-04-30T09:04:38;12.90;1.00
7894;DHT22;51343;51.396;6.656;2023-04-30T09:07:05;13.00;1.00
7894;DHT22;51343;51.396;6.656;2023-04-30T09:09:39;13.00;1.00
7894;DHT22;51343;51.396;6.656;2023-04-30T09:12:09;13.30;1.00
7894;DHT22;51343;51.396;6.656;2023-04-30T09:14:38;13.30;1.00
7894;DHT22;51343;51.396;6.656;2023-04-30T09:17:05;13.40;1.00
7894;DHT22;51343;51.396;6.656;2023-04-30T09:19:33;13.60;1.00
7894;DHT22;51343;51.396;6.656;2023-04-30T09:22:10;13.80;1.00
7894;DHT22;51343;51.396;6.656;2023-04-30T09:24:44;13.90;1.00
7894;DHT22;51343;51.396;6.656;2023-04-30T09:27:14;14.10;1.00
7894;DHT22;51343;51.396;6.656;2023-04-30T09:29:42;14.20;1.00
7894;DHT22;51343;51.396;6.656;2023-04-30T09:32:10;14.40;1.00
7894;DHT22;51343;51.396;6.656;2023-04-30T09:34:37;14.50;1.00
7894;DHT22;51343;51.396;6.656;2023-04-30T09:37:04;14.50;1.00
7894;DHT22;51343;51.396;6.656;2023-04-30T09:39:31;14.60;1.00
7894;DHT22;51343;51.396;6.656;2023-04-30T09:42:07;14.70;1.00
7894;DHT22;51343;51.396;6.656;2023-04-30T09:44:35;14.80;1.00
7894;DHT22;51343;51.396;6.656;2023-04-30T09:47:03;14.80;99.90
7894;DHT22;51343;51.396;6.656;2023-04-30T09:49:30;14.90;99.90
7894;DHT22;51343;51.396;6.656;2023-04-30T09:51:57;15.10;99.90
7894;DHT22;51343;51.396;6.656;2023-04-30T09:54:25;15.10;99.90
7894;DHT22;51343;51.396;6.656;2023-04-30T09:56:53;15.30;99.90
7894;DHT22;51343;51.396;6.656;2023-04-30T09:59:20;15.40;99.90
7894;DHT22;51343;51.396;6.656;2023-04-30T10:01:48;15.60;99.90
7894;DHT22;51343;51.396;6.656;2023-04-30T10:04:16;15.90;99.90
7894;DHT22;51343;51.396;6.656;2023-04-30T10:06:43;16.20;99.90
7894;DHT22;51343;51.396;6.656;2023-04-30T10:09:10;16.10;99.90
7894;DHT22;51343;51.396;6.656;2023-04-30T10:11:38;16.30;99.90
7894;DHT22;51343;51.396;6.656;2023-04-30T10:14:07;16.50;99.90
7894;DHT22;51343;51.396;6.656;2023-04-30T10:16:36;16.70;99.90
7894;DHT22;51343;51.396;6.656;2023-04-30T10:19:06;17.00;99.90
7894;DHT22;51343;51.396;6.656;2023-04-30T10:21:35;17.20;99.90
7894;DHT22;51343;51.396;6.656;2023-04-30T10:24:07;17.30;99.90
7894;DHT22;51343;51.396;6.656;2023-04-30T10:26:36;17.40;99.90
7894;DHT22;51343;51.396;6.656;2023-04-30T10:29:04;17.80;99.90
7894;DHT22;51343;51.396;6.656;2023-04-30T10:31:35;18.10;99.90
7894;DHT22;51343;51.396;6.656;2023-04-30T10:34:13;18.00;99.90
7894;DHT22;51343;51.396;6.656;2023-04-30T10:36:43;18.00;99.90
7894;DHT22;51343;51.396;6.656;2023-04-30T10:39:11;18.20;99.90
7894;DHT22;51343;51.396;6.656;2023-04-30T10:41:42;18.30;99.90
7894;DHT22;51343;51.396;6.656;2023-04-30T10:44:20;18.70;99.90
7894;DHT22;51343;51.396;6.656;2023-04-30T10:46:47;19.00;99.90
7894;DHT22;51343;51.396;6.656;2023-04-30T10:49:15;19.00;99.90
7894;DHT22;51343;51.396;6.656;2023-04-30T10:51:51;19.40;99.90
7894;DHT22;51343;51.396;6.656;2023-04-30T10:54:21;19.80;99.90
7894;DHT22;51343;51.396;6.656;2023-04-30T10:56:50;19.60;99.90
7894;DHT22;51343;51.396;6.656;2023-04-30T10:59:17;19.90;99.90
7894;DHT22;51343;51.396;6.656;2023-04-30T11:01:53;20.40;99.90
7894;DHT22;51343;51.396;6.656;2023-04-30T11:04:20;20.50;99.90
7894;DHT22;51343;51.396;6.656;2023-04-30T11:07:08;20.80;99.90
7894;DHT22;51343;51.396;6.656;2023-04-30T11:09:38;20.90;99.90
7894;DHT22;51343;51.396;6.656;2023-04-30T11:12:12;21.40;99.90
7894;DHT22;51343;51.396;6.656;2023-04-30T11:14:41;21.80;99.90
7894;DHT22;51343;51.396;6.656;2023-04-30T11:17:08;22.00;99.90
7894;DHT22;51343;51.396;6.656;2023-04-30T11:19:40;22.40;1.00
7894;DHT22;51343;51.396;6.656;2023-04-30T11:22:16;22.60;99.90
7894;DHT22;51343;51.396;6.656;2023-04-30T11:24:48;22.50;99.90
7894;DHT22;51343;51.396;6.656;2023-04-30T11:27:18;22.10;99.90
7894;DHT22;51343;51.396;6.656;2023-04-30T11:29:44;21.80;99.90
7894;DHT22;51343;51.396;6.656;2023-04-30T11:32:12;21.20;99.90
7894;DHT22;51343;51.396;6.656;2023-04-30T11:34:38;20.70;99.90
7894;DHT22;51343;51.396;6.656;2023-04-30T11:37:05;21.10;99.90
7894;DHT22;51343;51.396;6.656;2023-04-30T11:39:34;21.30;99.90
7894;DHT22;51343;51.396;6.656;2023-04-30T11:42:02;21.70;99.90
7894;DHT22;51343;51.396;6.656;2023-04-30T11:44:28;22.20;99.90
7894;DHT22;51343;51.396;6.656;2023-04-30T11:46:57;22.80;99.90
7894;DHT22;51343;51.396;6.656;2023-04-30T11:49:23;23.10;99.90
7894;DHT22;51343;51.396;6.656;2023-04-30T11:51:50;23.30;99.90
7894;DHT22;51343;51.396;6.656;2023-04-30T11:54:18;23.20;1.00
7894;DHT22;51343;51.396;6.656;2023-04-30T11:56:46;23.30;1.00
7894;DHT22;51343;51.396;6.656;2023-04-30T11:59:15;23.40;99.90
7894;DHT22;51343;51.396;6.656;2023-04-30T12:01:47;22.10;1.00
7894;DHT22;51343;51.396;6.656;2023-04-30T12:04:16;22.00;1.00
7894;DHT22;51343;51.396;6.656;2023-04-30T12:06:50;22.10;1.00
7894;DHT22;51343;51.396;6.656;2023-04-30T12:09:17;22.80;99.90
7894;DHT22;51343;51.396;6.656;2023-04-30T12:11:43;23.10;1.00
7894;DHT22;51343;51.396;6.656;2023-04-30T12:14:14;23.10;1.00
7894;DHT22;51343;51.396;6.656;2023-04-30T12:16:42;23.00;1.00
7894;DHT22;51343;51.396;6.656;2023-04-30T12:19:17;23.20;1.00
7894;DHT22;51343;51.396;6.656;2023-04-30T12:21:45;23.30;1.00
7894;DHT22;51343;51.396;6.656;2023-04-30T12:24:14;23.10;1.00
7894;DHT22;51343;51.396;6.656;2023-04-30T12:26:42;22.30;1.00
7894;DHT22;51343;51.396;6.656;2023-04-30T12:29:20;21.70;1.00
7894;DHT22;51343;51.396;6.656;2023-04-30T12:31:49;21.40;1.00
7894;DHT22;51343;51.396;6.656;2023-04-30T12:34:16;20.70;1.00
7894;DHT22;51343;51.396;6.656;2023-04-30T12:36:44;20.40;1.00
7894;DHT22;51343;51.396;6.656;2023-04-30T12:39:14;21.10;1.00
7894;DHT22;51343;51.396;6.656;2023-04-30T12:41:44;22.30;1.00
7894;DHT22;51343;51.396;6.656;2023-04-30T12:44:40;22.70;1.00
7894;DHT22;51343;51.396;6.656;2023-04-30T12:47:14;22.00;1.00
7894;DHT22;51343;51.396;6.656;2023-04-30T12:49:45;22.00;1.00
7894;DHT22;51343;51.396;6.656;2023-04-30T12:52:12;22.50;1.00
7894;DHT22;51343;51.396;6.656;2023-04-30T12:54:39;22.70;1.00
7894;DHT22;51343;51.396;6.656;2023-04-30T12:57:09;23.50;1.00
7894;DHT22;51343;51.396;6.656;2023-04-30T13:02:45;22.30;1.00
7894;DHT22;51343;51.396;6.656;2023-04-30T13:05:17;21.90;1.00
7894;DHT22;51343;51.396;6.656;2023-04-30T13:07:44;21.30;1.00
7894;DHT22;51343;51.396;6.656;2023-04-30T13:10:13;21.80;1.00
7894;DHT22;51343;51.396;6.656;2023-04-30T13:12:51;22.50;1.00
7894;DHT22;51343;51.396;6.656;2023-04-30T13:15:18;23.20;1.00
7894;DHT22;51343;51.396;6.656;2023-04-30T13:17:46;24.00;1.00
7894;DHT22;51343;51.396;6.656;2023-04-30T13:20:14;24.20;1.00
7894;DHT22;51343;51.396;6.656;2023-04-30T13:22:41;24.50;1.00
7894;DHT22;51343;51.396;6.656;2023-04-30T13:25:08;24.70;1.00
7894;DHT22;51343;51.396;6.656;2023-04-30T13:27:34;24.80;1.00
7894;DHT22;51343;51.396;6.656;2023-04-30T13:30:01;24.40;1.00
7894;DHT22;51343;51.396;6.656;2023-04-30T13:33:24;23.70;1.00
7894;DHT22;51343;51.396;6.656;2023-04-30T13:35:51;23.70;1.00
7894;DHT22;51343;51.396;6.656;2023-04-30T13:38:17;24.00;1.00
7894;DHT22;51343;51.396;6.656;2023-04-30T13:40:44;24.00;1.00
7894;DHT22;51343;51.396;6.656;2023-04-30T13:43:11;24.10;1.00
7894;DHT22;51343;51.396;6.656;2023-04-30T13:45:37;23.50;1.00
7894;DHT22;51343;51.396;6.656;2023-04-30T13:48:04;23.60;1.00
7894;DHT22;51343;51.396;6.656;2023-04-30T13:50:32;23.80;1.00
7894;DHT22;51343;51.396;6.656;2023-04-30T13:52:59;23.40;1.00
7894;DHT22;51343;51.396;6.656;2023-04-30T13:55:25;23.30;1.00
7894;DHT22;51343;51.396;6.656;2023-04-30T13:57:54;22.90;1.00
7894;DHT22;51343;51.396;6.656;2023-04-30T14:00:22;22.50;1.00
7894;DHT22;51343;51.396;6.656;2023-04-30T14:02:51;22.80;1.00
7894;DHT22;51343;51.396;6.656;2023-04-30T14:05:17;23.10;1.00
7894;DHT22;51343;51.396;6.656;2023-04-30T14:07:45;23.10;1.00
7894;DHT22;51343;51.396;6.656;2023-04-30T14:10:12;22.80;1.00
7894;DHT22;51343;51.396;6.656;2023-04-30T14:12:38;23.50;99.90
7894;DHT22;51343;51.396;6.656;2023-04-30T14:15:06;23.70;99.90
7894;DHT22;51343;51.396;6.656;2023-04-30T14:17:34;24.30;1.00
7894;DHT22;51343;51.396;6.656;2023-04-30T14:20:01;25.00;1.00
7894;DHT22;51343;51.396;6.656;2023-04-30T14:22:28;25.50;1.00
7894;DHT22;51343;51.396;6.656;2023-04-30T14:24:56;25.10;1.00
7894;DHT22;51343;51.396;6.656;2023-04-30T14:27:23;24.80;1.00
7894;DHT22;51343;51.396;6.656;2023-04-30T14:29:50;24.50;1.00
7894;DHT22;51343;51.396;6.656;2023-04-30T14:32:17;23.60;1.00
7894;DHT22;51343;51.396;6.656;2023-04-30T14:34:43;22.90;99.90
7894;DHT22;51343;51.396;6.656;2023-04-30T14:37:10;22.90;1.00
7894;DHT22;51343;51.396;6.656;2023-04-30T14:39:37;23.40;99.90
7894;DHT22;51343;51.396;6.656;2023-04-30T14:42:05;23.60;99.90
7894;DHT22;51343;51.396;6.656;2023-04-30T14:44:31;23.70;99.90
7894;DHT22;51343;51.396;6.656;2023-04-30T14:46:58;23.70;1.00
7894;DHT22;51343;51.396;6.656;2023-04-30T14:49:25;23.60;99.90
7894;DHT22;51343;51.396;6.656;2023-04-30T14:51:52;23.30;99.90
7894;DHT22;51343;51.396;6.656;2023-04-30T14:54:18;23.30;99.90
7894;DHT22;51343;51.396;6.656;2023-04-30T14:56:45;23.60;99.90
7894;DHT22;51343;51.396;6.656;2023-04-30T14:59:13;23.80;99.90
7894;DHT22;51343;51.396;6.656;2023-04-30T15:01:40;23.20;99.90
7894;DHT22;51343;51.396;6.656;2023-04-30T15:04:06;23.10;99.90
7894;DHT22;51343;51.396;6.656;2023-04-30T15:06:33;22.70;99.90
7894;DHT22;51343;51.396;6.656;2023-04-30T15:09:00;22.60;99.90
7894;DHT22;51343;51.396;6.656;2023-04-30T15:11:27;22.70;99.90
7894;DHT22;51343;51.396;6.656;2023-04-30T15:13:53;22.80;99.90
7894;DHT22;51343;51.396;6.656;2023-04-30T15:16:24;22.70;99.90
7894;DHT22;51343;51.396;6.656;2023-04-30T15:18:50;22.70;1.00
7894;DHT22;51343;51.396;6.656;2023-04-30T15:21:17;22.50;1.00
7894;DHT22;51343;51.396;6.656;2023-04-30T15:23:44;22.30;1.00
7894;DHT22;51343;51.396;6.656;2023-04-30T15:26:11;22.70;1.00
7894;DHT22;51343;51.396;6.656;2023-04-30T15:28:37;22.40;1.00
7894;DHT22;51343;51.396;6.656;2023-04-30T15:31:04;22.20;1.00
7894;DHT22;51343;51.396;6.656;2023-04-30T15:33:32;22.10;1.00
7894;DHT22;51343;51.396;6.656;2023-04-30T15:36:03;21.90;99.90
7894;DHT22;51343;51.396;6.656;2023-04-30T15:38:30;22.20;1.00
7894;DHT22;51343;51.396;6.656;2023-04-30T15:40:57;22.30;99.90
7894;DHT22;51343;51.396;6.656;2023-04-30T15:43:24;22.10;99.90
7894;DHT22;51343;51.396;6.656;2023-04-30T15:45:50;21.80;99.90
7894;DHT22;51343;51.396;6.656;2023-04-30T15:48:17;21.20;99.90
7894;DHT22;51343;51.396;6.656;2023-04-30T15:50:45;21.10;99.90
7894;DHT22;51343;51.396;6.656;2023-04-30T15:53:12;21.00;99.90
7894;DHT22;51343;51.396;6.656;2023-04-30T15:55:39;21.10;99.90
7894;DHT22;51343;51.396;6.656;2023-04-30T15:58:06;21.10;99.90
7894;DHT22;51343;51.396;6.656;2023-04-30T16:00:32;20.80;99.90
7894;DHT22;51343;51.396;6.656;2023-04-30T16:02:59;20.30;99.90
7894;DHT22;51343;51.396;6.656;2023-04-30T16:05:26;19.90;99.90
7894;DHT22;51343;51.396;6.656;2023-04-30T16:07:54;19.80;99.90
7894;DHT22;51343;51.396;6.656;2023-04-30T16:10:20;19.70;1.00
7894;DHT22;51343;51.396;6.656;2023-04-30T16:12:47;19.50;99.90
7894;DHT22;51343;51.396;6.656;2023-04-30T16:15:14;19.50;99.90
7894;DHT22;51343;51.396;6.656;2023-04-30T16:17:40;19.30;99.90
7894;DHT22;51343;51.396;6.656;2023-04-30T16:20:07;19.20;99.90
7894;DHT22;51343;51.396;6.656;2023-04-30T16:22:35;18.90;99.90
7894;DHT22;51343;51.396;6.656;2023-04-30T16:25:04;18.70;99.90
7894;DHT22;51343;51.396;6.656;2023-04-30T16:27:31;18.70;1.00
7894;DHT22;51343;51.396;6.656;2023-04-30T16:29:58;18.60;99.90
7894;DHT22;51343;51.396;6.656;2023-04-30T16:32:25;18.50;1.00
7894;DHT22;51343;51.396;6.656;2023-04-30T16:34:52;18.30;1.00
7894;DHT22;51343;51.396;6.656;2023-04-30T16:37:18;18.30;1.00
7894;DHT22;51343;51.396;6.656;2023-04-30T16:39:45;18.20;99.90
7894;DHT22;51343;51.396;6.656;2023-04-30T16:42:14;18.10;99.90
7894;DHT22;51343;51.396;6.656;2023-04-30T16:44:41;18.20;1.00
7894;DHT22;51343;51.396;6.656;2023-04-30T16:47:07;18.30;99.90
7894;DHT22;51343;51.396;6.656;2023-04-30T16:49:34;18.20;99.90
7894;DHT22;51343;51.396;6.656;2023-04-30T16:52:01;18.20;99.90